Time;durP1;ratioP1;P1;durP2;ratioP2;P2;SDS_P1;SDS_P2;PMS_P1;PMS_P2;Temp;Humidity;BMP_temperature;BMP_pressure;BME280_temperature;BME280_humidity;BME280_pressure;Samples;Min_cycle;Max_cycle;Signal;HPM_P1;HPM_P2
2022/12/27 16:29:46;;;;;;;23.98;12.73;;;3.40;99.90;;;;;;7587392;19;20378;-75
2022/12/27 16:32:21;;;;;;;25.40;13.38;;;3.20;99.90;;;;;;7636291;19;20518;-75
2022/12/27 16:35:08;;;;;;;24.08;13.48;;;3.10;99.90;;;;;;7629094;19;22250;-75
2022/12/27 16:37:49;;;;;;;23.80;13.35;;;3.10;99.90;;;;;;7623733;19;20013;-76
2022/12/27 16:40:42;;;;;;;23.75;13.80;;;3.10;99.90;;;;;;7634775;19;20605;-75
2022/12/27 16:43:27;;;;;;;28.58;13.98;;;3.10;99.90;;;;;;7635699;19;20276;-76
2022/12/27 16:46:28;;;;;;;29.33;14.43;;;3.20;99.90;;;;;;7611416;19;20025;-75
2022/12/27 16:49:38;;;;;;;32.25;16.92;;;3.20;99.90;;;;;;7609233;19;20026;-77
2022/12/27 16:52:16;;;;;;;26.15;15.35;;;3.20;99.90;;;;;;7634304;19;20900;-75
2022/12/27 16:55:05;;;;;;;30.52;18.33;;;3.20;99.90;;;;;;7608007;19;20017;-76
2022/12/27 16:57:46;;;;;;;32.10;16.20;;;3.30;99.90;;;;;;7614514;19;20480;-75
2022/12/27 17:00:39;;;;;;;27.85;15.35;;;3.40;99.90;;;;;;7612393;19;21289;-76
2022/12/27 17:03:18;;;;;;;29.63;15.05;;;3.40;99.90;;;;;;7619561;19;20029;-77
2022/12/27 17:05:52;;;;;;;33.10;15.85;;;3.50;99.90;;;;;;7625553;19;20014;-77
2022/12/27 17:08:45;;;;;;;25.67;13.82;;;3.70;99.90;;;;;;7622941;19;20014;-77
2022/12/27 17:11:28;;;;;;;37.45;16.75;;;3.80;99.90;;;;;;7622953;19;20273;-74
2022/12/27 17:14:17;;;;;;;34.58;17.80;;;3.80;99.90;;;;;;7605241;19;20018;-77
2022/12/27 17:16:54;;;;;;;34.30;17.70;;;3.70;99.90;;;;;;7627433;19;20015;-77
2022/12/27 17:19:26;;;;;;;37.33;19.98;;;3.60;99.90;;;;;;7623354;19;20018;-77
2022/12/27 17:22:03;;;;;;;35.05;19.60;;;3.60;99.90;;;;;;7633443;19;20972;-76
2022/12/27 17:24:35;;;;;;;35.83;19.33;;;3.50;99.90;;;;;;7589943;19;20018;-76
2022/12/27 17:27:35;;;;;;;38.03;19.00;;;3.50;99.90;;;;;;7593827;19;20104;-78
2022/12/27 17:30:15;;;;;;;28.52;16.70;;;3.40;99.90;;;;;;7612019;19;20018;-77
2022/12/27 17:32:55;;;;;;;28.77;15.77;;;3.50;99.90;;;;;;7625609;19;20031;-77
2022/12/27 17:35:52;;;;;;;32.95;17.83;;;3.50;99.90;;;;;;7636078;19;20010;-78
2022/12/27 17:38:44;;;;;;;37.40;18.52;;;3.50;99.90;;;;;;7625590;19;20010;-78
2022/12/27 17:44:41;;;;;;;37.60;21.00;;;3.30;99.90;;;;;;7587660;19;20022;-77
2022/12/27 17:47:47;;;;;;;53.67;25.45;;;3.40;99.90;;;;;;7596111;19;20017;-78
2022/12/27 17:50:22;;;;;;;51.33;26.25;;;3.40;99.90;;;;;;7621261;19;20010;-79
2022/12/27 17:59:13;;;;;;;46.05;22.90;;;3.40;99.90;;;;;;7583569;19;20050;-79
2022/12/27 18:01:48;;;;;;;38.38;21.98;;;3.50;99.90;;;;;;7584179;19;20014;-77
2022/12/27 18:04:27;;;;;;;44.22;21.58;;;3.60;99.90;;;;;;7599511;19;20018;-78
2022/12/27 18:07:02;;;;;;;42.70;23.92;;;3.70;99.90;;;;;;7560514;19;22195;-79
2022/12/27 18:09:36;;;;;;;42.08;22.70;;;3.60;99.90;;;;;;7576408;19;20388;-76
2022/12/27 18:12:30;;;;;;;42.47;22.90;;;3.50;99.90;;;;;;7588566;19;20633;-77
2022/12/27 18:15:13;;;;;;;40.28;23.80;;;3.50;99.90;;;;;;7595823;19;20021;-77
2022/12/27 18:17:48;;;;;;;38.25;22.60;;;3.50;99.90;;;;;;7591046;19;20020;-79
2022/12/27 18:22:59;;;;;;;39.90;24.08;;;3.50;99.90;;;;;;7562401;19;20019;-78
2022/12/27 18:25:39;;;;;;;38.10;23.58;;;3.30;99.90;;;;;;7563711;19;20022;-79
2022/12/27 18:28:26;;;;;;;40.63;23.85;;;3.30;99.90;;;;;;7610382;19;20015;-78
2022/12/27 18:31:16;;;;;;;39.13;21.98;;;3.20;99.90;;;;;;7620830;19;20360;-76
2022/12/27 18:33:56;;;;;;;33.85;21.23;;;3.20;99.90;;;;;;7631541;19;20031;-78
2022/12/27 18:36:34;;;;;;;32.42;19.45;;;3.30;99.90;;;;;;7617804;19;20014;-76
2022/12/27 18:39:28;;;;;;;41.58;22.33;;;3.30;99.90;;;;;;7612921;19;20017;-78
2022/12/27 18:42:03;;;;;;;;;;;3.30;99.90;;;;;;7626239;19;20010;-75
2022/12/27 18:44:48;;;;;;;66.85;36.53;;;3.20;99.90;;;;;;7624178;19;19915;-78
2022/12/27 18:47:23;;;;;;;57.45;27.55;;;3.20;99.90;;;;;;7611145;19;20006;-77
2022/12/27 18:49:57;;;;;;;37.00;22.50;;;3.20;99.90;;;;;;7611655;19;20370;-77
2022/12/27 18:52:31;;;;;;;31.33;19.63;;;3.10;99.90;;;;;;7567313;19;21057;-77
2022/12/27 18:55:06;;;;;;;33.15;18.50;;;3.10;99.90;;;;;;7601841;19;20014;-77
2022/12/27 18:57:38;;;;;;;33.47;18.77;;;3.30;99.90;;;;;;7572413;19;20011;-78
2022/12/27 19:00:18;;;;;;;38.10;20.85;;;3.40;99.90;;;;;;7577617;19;20126;-78
2022/12/27 19:02:51;;;;;;;40.35;23.73;;;3.50;99.90;;;;;;7578475;19;20058;-76
2022/12/27 19:05:27;;;;;;;32.58;17.92;;;3.40;99.90;;;;;;7608029;19;20020;-77
2022/12/27 19:08:19;;;;;;;32.60;17.20;;;3.40;99.90;;;;;;7605930;19;20041;-76
2022/12/27 19:10:52;;;;;;;30.00;16.33;;;3.50;99.90;;;;;;7620884;19;20054;-76
2022/12/27 19:13:38;;;;;;;35.65;19.08;;;3.40;99.90;;;;;;7605322;19;20014;-76
2022/12/27 19:16:22;;;;;;;31.15;18.98;;;3.30;99.90;;;;;;7611860;19;20043;-76
2022/12/27 19:19:01;;;;;;;30.98;14.57;;;3.30;99.90;;;;;;7607455;19;20007;-76
2022/12/27 19:21:37;;;;;;;28.58;16.55;;;3.30;99.90;;;;;;7585286;19;20056;-76
2022/12/27 19:24:27;;;;;;;26.98;14.75;;;3.30;99.90;;;;;;7616307;19;20035;-77
2022/12/27 19:27:14;;;;;;;24.25;15.40;;;3.30;99.90;;;;;;7589772;19;20022;-77
2022/12/27 19:29:49;;;;;;;26.48;14.52;;;3.30;99.90;;;;;;7567652;19;20042;-77
2022/12/27 19:32:30;;;;;;;22.88;14.40;;;3.30;99.90;;;;;;7586647;19;20028;-77
2022/12/27 19:35:03;;;;;;;23.23;15.38;;;3.40;99.90;;;;;;7594884;19;20035;-76
2022/12/27 19:37:36;;;;;;;23.25;14.35;;;3.40;99.90;;;;;;7598311;19;20496;-77
2022/12/27 19:40:13;;;;;;;23.90;14.23;;;3.30;99.90;;;;;;7605757;19;20023;-77
2022/12/27 19:42:45;;;;;;;22.70;13.60;;;3.30;99.90;;;;;;7597954;19;20020;-78
2022/12/27 19:45:19;;;;;;;25.77;14.45;;;3.30;99.90;;;;;;7576309;19;20018;-77
2022/12/27 19:47:53;;;;;;;24.10;14.77;;;3.30;99.90;;;;;;7560463;19;20025;-77
2022/12/27 19:50:25;;;;;;;26.13;15.63;;;3.20;99.90;;;;;;7568346;19;20975;-77
2022/12/27 19:52:58;;;;;;;29.17;16.58;;;3.20;99.90;;;;;;7577255;19;20093;-76
2022/12/27 19:55:32;;;;;;;;;;;3.10;99.90;;;;;;7595765;19;26363;-76
2022/12/27 19:58:04;;;;;;;24.90;15.73;;;2.90;99.90;;;;;;7565899;19;20678;-78
2022/12/27 20:00:36;;;;;;;32.28;16.42;;;2.90;99.90;;;;;;7578577;19;20015;-78
2022/12/27 20:03:09;;;;;;;25.45;15.90;;;2.80;99.90;;;;;;7551124;19;20082;-78
2022/12/27 20:05:43;;;;;;;35.55;17.80;;;2.70;99.90;;;;;;6054991;19;10000640;-78
2022/12/27 20:08:39;;;;;;;34.90;19.77;;;2.80;99.90;;;;;;5570423;19;10000800;-80
2022/12/27 20:11:17;;;;;;;34.15;17.95;;;2.80;99.90;;;;;;7578687;19;20555;-79
2022/12/27 20:13:49;;;;;;;32.35;19.27;;;2.80;99.90;;;;;;7588150;19;20019;-76
2022/12/27 20:16:21;;;;;;;33.70;19.60;;;2.70;99.90;;;;;;7565390;19;20021;-80
2022/12/27 20:18:53;;;;;;;36.53;20.95;;;2.70;99.90;;;;;;7571243;19;20021;-77
2022/12/27 20:21:25;;;;;;;35.20;19.95;;;2.60;99.90;;;;;;7564635;19;20396;-78
2022/12/27 20:23:57;;;;;;;33.35;18.77;;;2.60;99.90;;;;;;7551090;19;20018;-79
2022/12/27 20:26:29;;;;;;;35.63;20.23;;;2.60;99.90;;;;;;7547513;19;20011;-78
2022/12/27 20:29:01;;;;;;;36.95;21.67;;;2.60;99.90;;;;;;7567591;19;20025;-77
2022/12/27 20:31:35;;;;;;;36.78;20.15;;;2.70;99.90;;;;;;7575161;19;20052;-78
2022/12/27 20:34:15;;;;;;;34.80;19.30;;;2.70;99.90;;;;;;7591680;19;20420;-77
2022/12/27 20:36:47;;;;;;;40.17;22.05;;;2.70;99.90;;;;;;7562709;19;20777;-72
2022/12/27 20:39:20;;;;;;;34.33;19.88;;;2.60;99.90;;;;;;7541105;19;20015;-78
2022/12/27 20:41:52;;;;;;;34.63;19.50;;;2.50;99.90;;;;;;7566919;19;20022;-77
2022/12/27 20:44:24;;;;;;;29.13;17.92;;;2.60;99.90;;;;;;7590770;19;20013;-77
2022/12/27 20:46:56;;;;;;;32.17;18.52;;;2.60;99.90;;;;;;7578049;19;20804;-76
2022/12/27 20:49:28;;;;;;;28.50;17.60;;;2.40;99.90;;;;;;7584886;19;20408;-79
2022/12/27 20:52:00;;;;;;;28.30;17.15;;;2.40;99.90;;;;;;7561523;19;20014;-78
2022/12/27 20:54:32;;;;;;;26.27;16.60;;;2.40;99.90;;;;;;7590877;19;20037;-78
2022/12/27 20:57:04;;;;;;;29.02;16.05;;;2.30;99.90;;;;;;7571621;19;20629;-79
2022/12/27 20:59:36;;;;;;;31.75;16.23;;;2.30;99.90;;;;;;7579620;19;20010;-79
2022/12/27 21:02:11;;;;;;;26.85;16.52;;;2.30;99.90;;;;;;7564450;19;21051;-77
2022/12/27 21:04:44;;;;;;;26.73;15.30;;;2.10;99.90;;;;;;7591193;19;20013;-77
2022/12/27 21:07:16;;;;;;;29.25;16.15;;;2.00;99.90;;;;;;7579254;19;20010;-77
2022/12/27 21:09:49;;;;;;;25.23;15.13;;;2.10;99.90;;;;;;7548466;19;20021;-78
2022/12/27 21:12:21;;;;;;;31.42;16.45;;;2.10;99.90;;;;;;7531234;19;20014;-77
2022/12/27 21:14:53;;;;;;;32.45;16.65;;;2.10;99.90;;;;;;7577872;19;20098;-77
2022/12/27 21:17:25;;;;;;;28.30;15.35;;;2.10;99.90;;;;;;7585645;19;20022;-79
2022/12/27 21:19:57;;;;;;;23.52;14.55;;;2.10;99.90;;;;;;7566364;19;20078;-78
2022/12/27 21:22:29;;;;;;;24.42;15.10;;;2.00;99.90;;;;;;7570179;19;20016;-78
2022/12/27 21:25:06;;;;;;;32.75;15.95;;;1.90;99.90;;;;;;7578286;19;20026;-77
2022/12/27 21:27:38;;;;;;;30.70;17.98;;;1.80;99.90;;;;;;7571077;19;20017;-79
2022/12/27 21:30:12;;;;;;;30.92;17.92;;;1.80;99.90;;;;;;7599532;19;20015;-79
2022/12/27 21:32:49;;;;;;;23.38;13.65;;;1.80;99.90;;;;;;7578436;19;20050;-77
2022/12/27 21:35:21;;;;;;;21.00;13.32;;;2.00;99.90;;;;;;7584848;19;20019;-78
2022/12/27 21:37:53;;;;;;;25.80;14.63;;;2.00;99.90;;;;;;7567357;19;20021;-79
2022/12/27 21:40:25;;;;;;;24.38;13.80;;;2.00;99.90;;;;;;7608208;19;20603;-78
2022/12/27 21:42:57;;;;;;;26.83;13.35;;;1.90;99.90;;;;;;7605711;19;20014;-79
2022/12/27 21:45:29;;;;;;;24.52;13.98;;;1.90;99.90;;;;;;7610509;19;20015;-79
2022/12/27 21:48:01;;;;;;;24.90;14.80;;;1.80;99.90;;;;;;7609000;19;20447;-77
2022/12/27 21:50:33;;;;;;;33.33;14.65;;;1.80;99.90;;;;;;7616793;19;20468;-78
2022/12/27 21:53:08;;;;;;;22.23;12.70;;;1.70;99.90;;;;;;7613285;19;20640;-78
2022/12/27 21:55:40;;;;;;;20.15;11.75;;;1.70;99.90;;;;;;7600574;19;20022;-78
2022/12/27 21:58:12;;;;;;;23.80;14.25;;;1.70;99.90;;;;;;7570334;19;20020;-77
2022/12/27 22:00:44;;;;;;;20.30;13.52;;;1.60;99.90;;;;;;7581299;19;20022;-80
2022/12/27 22:03:17;;;;;;;23.33;13.38;;;1.60;99.90;;;;;;7572600;19;21150;-79
2022/12/27 22:05:49;;;;;;;23.77;13.82;;;1.60;99.90;;;;;;7609506;19;20024;-79
2022/12/27 22:08:21;;;;;;;20.70;12.55;;;1.50;99.90;;;;;;7599546;19;20158;-76
2022/12/27 22:10:55;;;;;;;22.48;13.10;;;1.50;99.90;;;;;;7595000;19;20022;-75
2022/12/27 22:13:27;;;;;;;20.45;12.80;;;1.50;99.90;;;;;;7585150;19;20011;-78
2022/12/27 22:16:02;;;;;;;25.57;14.50;;;1.40;99.90;;;;;;7594496;19;20014;-77
2022/12/27 22:18:37;;;;;;;20.60;12.90;;;1.20;99.90;;;;;;7603670;19;20263;-77
2022/12/27 22:21:14;;;;;;;25.02;12.15;;;1.20;99.90;;;;;;7608399;19;20994;-78
